sensor_id;sensor_type;location;lat;lon;timestamp;temperature;humidity
70986;DHT22;58645;43.068;25.610;2023-02-15T00:00:22;3.10;99.90
70986;DHT22;58645;43.068;25.610;2023-02-15T00:02:48;3.00;99.90
70986;DHT22;58645;43.068;25.610;2023-02-15T00:05:14;3.00;99.90
70986;DHT22;58645;43.068;25.610;2023-02-15T00:07:40;2.90;99.90
70986;DHT22;58645;43.068;25.610;2023-02-15T00:10:06;2.90;99.90
70986;DHT22;58645;43.068;25.610;2023-02-15T00:12:32;2.80;99.90
70986;DHT22;58645;43.068;25.610;2023-02-15T00:14:58;2.80;99.90
70986;DHT22;58645;43.068;25.610;2023-02-15T00:17:27;2.80;99.90
70986;DHT22;58645;43.068;25.610;2023-02-15T00:19:53;2.70;99.90
70986;DHT22;58645;43.068;25.610;2023-02-15T00:22:19;2.70;99.90
70986;DHT22;58645;43.068;25.610;2023-02-15T00:24:45;2.70;99.90
70986;DHT22;58645;43.068;25.610;2023-02-15T00:27:11;2.70;99.90
70986;DHT22;58645;43.068;25.610;2023-02-15T00:29:37;2.60;99.90
70986;DHT22;58645;43.068;25.610;2023-02-15T00:32:03;2.60;99.90
70986;DHT22;58645;43.068;25.610;2023-02-15T00:34:28;2.60;99.90
70986;DHT22;58645;43.068;25.610;2023-02-15T00:36:54;2.60;99.90
70986;DHT22;58645;43.068;25.610;2023-02-15T00:39:20;2.60;99.90
70986;DHT22;58645;43.068;25.610;2023-02-15T00:41:47;2.60;99.90
70986;DHT22;58645;43.068;25.610;2023-02-15T00:44:13;2.60;99.90
70986;DHT22;58645;43.068;25.610;2023-02-15T00:46:39;2.50;99.90
70986;DHT22;58645;43.068;25.610;2023-02-15T00:49:05;2.50;99.90
70986;DHT22;58645;43.068;25.610;2023-02-15T00:51:31;2.50;99.90
70986;DHT22;58645;43.068;25.610;2023-02-15T00:53:57;2.50;99.90
70986;DHT22;58645;43.068;25.610;2023-02-15T00:56:23;2.50;99.90
70986;DHT22;58645;43.068;25.610;2023-02-15T00:58:49;2.40;99.90
70986;DHT22;58645;43.068;25.610;2023-02-15T01:01:19;2.40;99.90
70986;DHT22;58645;43.068;25.610;2023-02-15T01:03:45;2.40;99.90
70986;DHT22;58645;43.068;25.610;2023-02-15T01:06:12;2.30;99.90
70986;DHT22;58645;43.068;25.610;2023-02-15T01:08:38;2.40;99.90
70986;DHT22;58645;43.068;25.610;2023-02-15T01:11:11;2.20;99.90
70986;DHT22;58645;43.068;25.610;2023-02-15T01:13:38;2.20;99.90
70986;DHT22;58645;43.068;25.610;2023-02-15T01:16:05;2.20;99.90
70986;DHT22;58645;43.068;25.610;2023-02-15T01:18:31;2.20;99.90
70986;DHT22;58645;43.068;25.610;2023-02-15T01:20:57;2.10;99.90
70986;DHT22;58645;43.068;25.610;2023-02-15T01:23:22;2.10;99.90
70986;DHT22;58645;43.068;25.610;2023-02-15T01:25:48;2.10;99.90
70986;DHT22;58645;43.068;25.610;2023-02-15T01:28:14;2.10;99.90
70986;DHT22;58645;43.068;25.610;2023-02-15T01:30:40;2.10;99.90
70986;DHT22;58645;43.068;25.610;2023-02-15T01:33:06;2.10;99.90
70986;DHT22;58645;43.068;25.610;2023-02-15T01:35:32;2.00;99.90
70986;DHT22;58645;43.068;25.610;2023-02-15T01:37:58;2.00;99.90
70986;DHT22;58645;43.068;25.610;2023-02-15T01:40:24;2.00;99.90
70986;DHT22;58645;43.068;25.610;2023-02-15T01:42:51;2.00;99.90
70986;DHT22;58645;43.068;25.610;2023-02-15T01:45:30;1.90;99.90
70986;DHT22;58645;43.068;25.610;2023-02-15T01:48:17;1.90;99.90
70986;DHT22;58645;43.068;25.610;2023-02-15T01:50:50;1.90;99.90
70986;DHT22;58645;43.068;25.610;2023-02-15T01:53:25;1.90;99.90
70986;DHT22;58645;43.068;25.610;2023-02-15T01:55:54;1.90;99.90
70986;DHT22;58645;43.068;25.610;2023-02-15T01:58:22;1.80;99.90
70986;DHT22;58645;43.068;25.610;2023-02-15T02:00:48;1.80;99.90
70986;DHT22;58645;43.068;25.610;2023-02-15T02:03:14;1.80;99.90
70986;DHT22;58645;43.068;25.610;2023-02-15T02:05:40;1.80;99.90
70986;DHT22;58645;43.068;25.610;2023-02-15T02:08:07;1.80;99.90
70986;DHT22;58645;43.068;25.610;2023-02-15T02:10:35;1.70;99.90
70986;DHT22;58645;43.068;25.610;2023-02-15T02:13:05;1.70;99.90
70986;DHT22;58645;43.068;25.610;2023-02-15T02:15:44;1.70;99.90
70986;DHT22;58645;43.068;25.610;2023-02-15T02:37:51;1.60;99.90
70986;DHT22;58645;43.068;25.610;2023-02-15T02:40:53;1.60;99.90
70986;DHT22;58645;43.068;25.610;2023-02-15T02:46:07;1.60;99.90
70986;DHT22;58645;43.068;25.610;2023-02-15T02:48:36;1.60;99.90
70986;DHT22;58645;43.068;25.610;2023-02-15T02:51:02;1.60;99.90
70986;DHT22;58645;43.068;25.610;2023-02-15T02:53:30;1.60;99.90
70986;DHT22;58645;43.068;25.610;2023-02-15T02:56:01;1.60;99.90
70986;DHT22;58645;43.068;25.610;2023-02-15T02:58:55;1.60;99.90
70986;DHT22;58645;43.068;25.610;2023-02-15T03:03:56;1.60;99.90
70986;DHT22;58645;43.068;25.610;2023-02-15T03:06:35;1.60;99.90
70986;DHT22;58645;43.068;25.610;2023-02-15T03:09:15;1.50;99.90
70986;DHT22;58645;43.068;25.610;2023-02-15T03:11:44;1.50;99.90
70986;DHT22;58645;43.068;25.610;2023-02-15T03:14:13;1.50;99.90
70986;DHT22;58645;43.068;25.610;2023-02-15T03:16:40;1.50;99.90
70986;DHT22;58645;43.068;25.610;2023-02-15T03:19:08;1.50;99.90
70986;DHT22;58645;43.068;25.610;2023-02-15T03:21:48;1.50;99.90
70986;DHT22;58645;43.068;25.610;2023-02-15T03:27:37;1.50;99.90
70986;DHT22;58645;43.068;25.610;2023-02-15T03:30:06;1.50;99.90
70986;DHT22;58645;43.068;25.610;2023-02-15T03:32:34;1.50;99.90
70986;DHT22;58645;43.068;25.610;2023-02-15T03:35:01;1.40;99.90
70986;DHT22;58645;43.068;25.610;2023-02-15T03:37:44;1.40;99.90
70986;DHT22;58645;43.068;25.610;2023-02-15T03:45:35;1.30;99.90
70986;DHT22;58645;43.068;25.610;2023-02-15T03:48:04;1.30;99.90
70986;DHT22;58645;43.068;25.610;2023-02-15T03:50:33;1.30;99.90
70986;DHT22;58645;43.068;25.610;2023-02-15T03:53:22;1.40;99.90
70986;DHT22;58645;43.068;25.610;2023-02-15T03:55:49;1.30;99.90
70986;DHT22;58645;43.068;25.610;2023-02-15T03:58:18;1.40;99.90
70986;DHT22;58645;43.068;25.610;2023-02-15T04:01:13;1.30;99.90
70986;DHT22;58645;43.068;25.610;2023-02-15T04:04:23;1.30;99.90
70986;DHT22;58645;43.068;25.610;2023-02-15T04:06:50;1.30;99.90
70986;DHT22;58645;43.068;25.610;2023-02-15T04:09:16;1.30;99.90
70986;DHT22;58645;43.068;25.610;2023-02-15T04:12:00;1.30;99.90
70986;DHT22;58645;43.068;25.610;2023-02-15T04:14:26;1.30;99.90
70986;DHT22;58645;43.068;25.610;2023-02-15T04:17:10;1.30;99.90
70986;DHT22;58645;43.068;25.610;2023-02-15T04:19:36;1.20;99.90
70986;DHT22;58645;43.068;25.610;2023-02-15T04:22:20;1.20;99.90
70986;DHT22;58645;43.068;25.610;2023-02-15T04:25:05;1.20;99.90
70986;DHT22;58645;43.068;25.610;2023-02-15T04:27:42;1.10;99.90
70986;DHT22;58645;43.068;25.610;2023-02-15T04:30:09;1.10;99.90
70986;DHT22;58645;43.068;25.610;2023-02-15T04:32:35;1.10;99.90
70986;DHT22;58645;43.068;25.610;2023-02-15T04:35:02;1.10;99.90
70986;DHT22;58645;43.068;25.610;2023-02-15T04:37:27;1.10;99.90
70986;DHT22;58645;43.068;25.610;2023-02-15T04:39:53;1.10;99.90
70986;DHT22;58645;43.068;25.610;2023-02-15T04:42:19;1.10;99.90
70986;DHT22;58645;43.068;25.610;2023-02-15T04:44:44;1.10;99.90
70986;DHT22;58645;43.068;25.610;2023-02-15T04:47:10;1.00;99.90
70986;DHT22;58645;43.068;25.610;2023-02-15T04:49:40;1.00;99.90
70986;DHT22;58645;43.068;25.610;2023-02-15T04:52:08;1.00;99.90
70986;DHT22;58645;43.068;25.610;2023-02-15T04:54:34;1.00;99.90
70986;DHT22;58645;43.068;25.610;2023-02-15T04:57:00;1.00;99.90
70986;DHT22;58645;43.068;25.610;2023-02-15T04:59:27;1.00;99.90
70986;DHT22;58645;43.068;25.610;2023-02-15T05:01:53;1.00;99.90
70986;DHT22;58645;43.068;25.610;2023-02-15T05:04:19;1.00;99.90
70986;DHT22;58645;43.068;25.610;2023-02-15T05:06:48;1.00;99.90
70986;DHT22;58645;43.068;25.610;2023-02-15T05:09:15;1.00;99.90
70986;DHT22;58645;43.068;25.610;2023-02-15T05:11:41;1.00;99.90
70986;DHT22;58645;43.068;25.610;2023-02-15T05:14:21;1.00;99.90
70986;DHT22;58645;43.068;25.610;2023-02-15T05:17:08;1.00;99.90
70986;DHT22;58645;43.068;25.610;2023-02-15T05:19:45;1.00;99.90
70986;DHT22;58645;43.068;25.610;2023-02-15T05:22:12;1.00;99.90
70986;DHT22;58645;43.068;25.610;2023-02-15T05:24:38;1.10;99.90
70986;DHT22;58645;43.068;25.610;2023-02-15T05:27:22;1.10;99.90
70986;DHT22;58645;43.068;25.610;2023-02-15T05:30:18;0.90;99.90
70986;DHT22;58645;43.068;25.610;2023-02-15T05:32:56;1.10;99.90
70986;DHT22;58645;43.068;25.610;2023-02-15T05:35:22;1.20;99.90
70986;DHT22;58645;43.068;25.610;2023-02-15T05:37:56;1.20;99.90
70986;DHT22;58645;43.068;25.610;2023-02-15T05:41:09;1.30;99.90
70986;DHT22;58645;43.068;25.610;2023-02-15T05:43:38;1.30;99.90
70986;DHT22;58645;43.068;25.610;2023-02-15T05:46:05;1.30;99.90
70986;DHT22;58645;43.068;25.610;2023-02-15T05:48:32;1.30;99.90
70986;DHT22;58645;43.068;25.610;2023-02-15T05:51:02;1.40;99.90
70986;DHT22;58645;43.068;25.610;2023-02-15T05:53:30;1.40;99.90
70986;DHT22;58645;43.068;25.610;2023-02-15T05:56:00;1.40;99.90
70986;DHT22;58645;43.068;25.610;2023-02-15T05:58:31;1.50;99.90
70986;DHT22;58645;43.068;25.610;2023-02-15T06:00:57;1.50;99.90
70986;DHT22;58645;43.068;25.610;2023-02-15T06:03:24;1.60;99.90
70986;DHT22;58645;43.068;25.610;2023-02-15T06:05:51;1.90;99.90
70986;DHT22;58645;43.068;25.610;2023-02-15T06:08:18;2.20;99.90
70986;DHT22;58645;43.068;25.610;2023-02-15T06:10:45;3.10;99.90
70986;DHT22;58645;43.068;25.610;2023-02-15T06:13:11;4.20;99.90
70986;DHT22;58645;43.068;25.610;2023-02-15T06:15:37;5.10;99.90
70986;DHT22;58645;43.068;25.610;2023-02-15T06:18:03;6.10;97.60
70986;DHT22;58645;43.068;25.610;2023-02-15T06:20:29;6.80;91.00
70986;DHT22;58645;43.068;25.610;2023-02-15T06:22:54;7.70;82.80
70986;DHT22;58645;43.068;25.610;2023-02-15T06:25:20;8.40;77.70
70986;DHT22;58645;43.068;25.610;2023-02-15T06:27:46;9.20;72.00
70986;DHT22;58645;43.068;25.610;2023-02-15T06:30:12;9.50;69.10
70986;DHT22;58645;43.068;25.610;2023-02-15T06:32:38;10.00;67.60
70986;DHT22;58645;43.068;25.610;2023-02-15T06:35:06;10.50;65.60
70986;DHT22;58645;43.068;25.610;2023-02-15T06:37:32;10.80;63.20
70986;DHT22;58645;43.068;25.610;2023-02-15T06:39:57;11.10;62.40
70986;DHT22;58645;43.068;25.610;2023-02-15T06:42:24;11.30;60.70
70986;DHT22;58645;43.068;25.610;2023-02-15T06:44:50;11.70;59.60
70986;DHT22;58645;43.068;25.610;2023-02-15T06:47:15;12.20;58.20
70986;DHT22;58645;43.068;25.610;2023-02-15T06:49:41;12.00;57.20
70986;DHT22;58645;43.068;25.610;2023-02-15T06:52:07;11.10;59.30
70986;DHT22;58645;43.068;25.610;2023-02-15T06:54:33;10.10;62.40
70986;DHT22;58645;43.068;25.610;2023-02-15T06:56:58;9.50;64.80
70986;DHT22;58645;43.068;25.610;2023-02-15T06:59:24;8.70;66.70
70986;DHT22;58645;43.068;25.610;2023-02-15T07:02:02;8.10;69.20
70986;DHT22;58645;43.068;25.610;2023-02-15T07:04:54;7.60;71.40
70986;DHT22;58645;43.068;25.610;2023-02-15T07:08:43;7.30;72.30
70986;DHT22;58645;43.068;25.610;2023-02-15T07:11:56;6.80;74.80
70986;DHT22;58645;43.068;25.610;2023-02-15T07:19:10;6.60;80.00
70986;DHT22;58645;43.068;25.610;2023-02-15T07:21:55;6.90;79.30
70986;DHT22;58645;43.068;25.610;2023-02-15T07:24:43;7.00;78.50
70986;DHT22;58645;43.068;25.610;2023-02-15T07:27:23;7.00;77.00
70986;DHT22;58645;43.068;25.610;2023-02-15T07:29:55;6.90;76.30
70986;DHT22;58645;43.068;25.610;2023-02-15T07:32:22;6.80;78.20
70986;DHT22;58645;43.068;25.610;2023-02-15T07:34:48;6.90;77.70
70986;DHT22;58645;43.068;25.610;2023-02-15T07:37:14;7.00;76.80
70986;DHT22;58645;43.068;25.610;2023-02-15T07:39:40;7.50;75.10
70986;DHT22;58645;43.068;25.610;2023-02-15T07:42:08;7.50;73.90
70986;DHT22;58645;43.068;25.610;2023-02-15T07:44:34;7.70;73.90
70986;DHT22;58645;43.068;25.610;2023-02-15T07:47:11;9.10;70.10
70986;DHT22;58645;43.068;25.610;2023-02-15T07:49:58;9.40;65.80
70986;DHT22;58645;43.068;25.610;2023-02-15T07:52:25;10.70;62.50
70986;DHT22;58645;43.068;25.610;2023-02-15T07:54:51;11.60;59.00
70986;DHT22;58645;43.068;25.610;2023-02-15T07:57:16;11.10;59.70
70986;DHT22;58645;43.068;25.610;2023-02-15T07:59:42;11.90;58.60
70986;DHT22;58645;43.068;25.610;2023-02-15T08:02:22;12.80;55.60
70986;DHT22;58645;43.068;25.610;2023-02-15T08:04:48;13.00;54.00
70986;DHT22;58645;43.068;25.610;2023-02-15T08:07:13;13.20;52.70
70986;DHT22;58645;43.068;25.610;2023-02-15T08:09:39;13.60;52.10
70986;DHT22;58645;43.068;25.610;2023-02-15T08:12:06;13.90;51.30
70986;DHT22;58645;43.068;25.610;2023-02-15T08:14:31;14.40;50.00
70986;DHT22;58645;43.068;25.610;2023-02-15T08:16:59;14.60;49.70
70986;DHT22;58645;43.068;25.610;2023-02-15T08:19:32;14.50;48.90
70986;DHT22;58645;43.068;25.610;2023-02-15T08:22:05;14.50;49.30
70986;DHT22;58645;43.068;25.610;2023-02-15T08:24:34;14.70;49.30
70986;DHT22;58645;43.068;25.610;2023-02-15T08:27:02;14.90;48.90
70986;DHT22;58645;43.068;25.610;2023-02-15T08:29:30;15.10;48.10
70986;DHT22;58645;43.068;25.610;2023-02-15T08:32:07;15.70;46.80
70986;DHT22;58645;43.068;25.610;2023-02-15T08:34:37;16.00;46.20
70986;DHT22;58645;43.068;25.610;2023-02-15T08:37:03;16.00;46.50
70986;DHT22;58645;43.068;25.610;2023-02-15T08:39:30;15.90;45.70
70986;DHT22;58645;43.068;25.610;2023-02-15T08:41:55;15.50;46.00
70986;DHT22;58645;43.068;25.610;2023-02-15T08:44:21;15.70;45.80
70986;DHT22;58645;43.068;25.610;2023-02-15T08:46:48;15.30;45.80
70986;DHT22;58645;43.068;25.610;2023-02-15T08:49:17;15.30;45.90
70986;DHT22;58645;43.068;25.610;2023-02-15T08:51:45;15.60;45.40
70986;DHT22;58645;43.068;25.610;2023-02-15T08:54:19;15.80;45.00
70986;DHT22;58645;43.068;25.610;2023-02-15T08:56:49;16.30;43.80
70986;DHT22;58645;43.068;25.610;2023-02-15T08:59:17;16.90;43.20
70986;DHT22;58645;43.068;25.610;2023-02-15T09:01:44;16.70;43.40
70986;DHT22;58645;43.068;25.610;2023-02-15T09:04:10;16.50;43.30
70986;DHT22;58645;43.068;25.610;2023-02-15T09:06:37;16.80;42.80
70986;DHT22;58645;43.068;25.610;2023-02-15T09:09:04;16.10;43.80
70986;DHT22;58645;43.068;25.610;2023-02-15T09:11:33;16.60;43.30
70986;DHT22;58645;43.068;25.610;2023-02-15T09:14:04;17.00;42.90
70986;DHT22;58645;43.068;25.610;2023-02-15T09:16:35;16.90;42.40
70986;DHT22;58645;43.068;25.610;2023-02-15T09:19:01;17.00;41.90
70986;DHT22;58645;43.068;25.610;2023-02-15T09:21:28;16.90;42.00
70986;DHT22;58645;43.068;25.610;2023-02-15T09:23:59;17.10;42.30
70986;DHT22;58645;43.068;25.610;2023-02-15T09:26:27;16.80;41.20
70986;DHT22;58645;43.068;25.610;2023-02-15T09:28:56;17.20;41.40
70986;DHT22;58645;43.068;25.610;2023-02-15T09:31:30;17.20;41.70
70986;DHT22;58645;43.068;25.610;2023-02-15T09:33:56;16.70;42.10
70986;DHT22;58645;43.068;25.610;2023-02-15T09:36:26;16.90;42.50
70986;DHT22;58645;43.068;25.610;2023-02-15T09:38:56;17.00;41.50
70986;DHT22;58645;43.068;25.610;2023-02-15T09:55:07;17.00;40.80
70986;DHT22;58645;43.068;25.610;2023-02-15T09:57:55;16.90;42.20
70986;DHT22;58645;43.068;25.610;2023-02-15T10:06:42;15.60;44.10
70986;DHT22;58645;43.068;25.610;2023-02-15T10:12:12;17.50;41.60
70986;DHT22;58645;43.068;25.610;2023-02-15T10:20:17;19.00;38.30
70986;DHT22;58645;43.068;25.610;2023-02-15T10:31:09;19.70;35.50
70986;DHT22;58645;43.068;25.610;2023-02-15T10:33:42;18.20;38.00
70986;DHT22;58645;43.068;25.610;2023-02-15T10:39:03;19.80;36.50
70986;DHT22;58645;43.068;25.610;2023-02-15T10:47:14;20.00;35.60
70986;DHT22;58645;43.068;25.610;2023-02-15T10:52:29;17.90;38.20
70986;DHT22;58645;43.068;25.610;2023-02-15T10:57:51;18.90;37.40
70986;DHT22;58645;43.068;25.610;2023-02-15T11:08:16;18.10;38.20
70986;DHT22;58645;43.068;25.610;2023-02-15T11:11:06;17.70;39.20
70986;DHT22;58645;43.068;25.610;2023-02-15T11:13:38;17.70;40.00
70986;DHT22;58645;43.068;25.610;2023-02-15T11:16:15;17.90;39.20
70986;DHT22;58645;43.068;25.610;2023-02-15T11:18:48;18.10;38.90
70986;DHT22;58645;43.068;25.610;2023-02-15T11:21:26;17.90;38.20
70986;DHT22;58645;43.068;25.610;2023-02-15T11:23:54;17.30;39.50
70986;DHT22;58645;43.068;25.610;2023-02-15T11:26:34;17.80;38.90
70986;DHT22;58645;43.068;25.610;2023-02-15T11:29:07;17.60;39.10
70986;DHT22;58645;43.068;25.610;2023-02-15T11:31:51;17.90;38.90
70986;DHT22;58645;43.068;25.610;2023-02-15T11:34:49;18.40;37.90
70986;DHT22;58645;43.068;25.610;2023-02-15T11:37:19;19.10;36.70
70986;DHT22;58645;43.068;25.610;2023-02-15T11:39:46;18.90;36.30
70986;DHT22;58645;43.068;25.610;2023-02-15T11:42:21;19.50;35.50
70986;DHT22;58645;43.068;25.610;2023-02-15T11:44:59;19.10;35.60
70986;DHT22;58645;43.068;25.610;2023-02-15T11:47:28;18.70;37.10
70986;DHT22;58645;43.068;25.610;2023-02-15T11:49:53;18.80;36.90
70986;DHT22;58645;43.068;25.610;2023-02-15T11:52:19;18.90;37.10
70986;DHT22;58645;43.068;25.610;2023-02-15T11:54:46;18.30;36.40
70986;DHT22;58645;43.068;25.610;2023-02-15T11:59:51;18.00;38.00
70986;DHT22;58645;43.068;25.610;2023-02-15T12:02:21;18.40;37.10
70986;DHT22;58645;43.068;25.610;2023-02-15T12:05:00;18.30;37.20
70986;DHT22;58645;43.068;25.610;2023-02-15T12:07:42;17.90;37.00
70986;DHT22;58645;43.068;25.610;2023-02-15T12:10:28;17.80;37.50
70986;DHT22;58645;43.068;25.610;2023-02-15T12:13:19;18.30;37.50
70986;DHT22;58645;43.068;25.610;2023-02-15T12:15:51;18.90;36.00
70986;DHT22;58645;43.068;25.610;2023-02-15T12:18:35;18.90;35.20
70986;DHT22;58645;43.068;25.610;2023-02-15T12:23:33;18.30;36.70
70986;DHT22;58645;43.068;25.610;2023-02-15T12:25:59;18.50;36.60
70986;DHT22;58645;43.068;25.610;2023-02-15T12:31:01;17.90;37.00
70986;DHT22;58645;43.068;25.610;2023-02-15T12:33:31;17.20;38.70
70986;DHT22;58645;43.068;25.610;2023-02-15T12:38:38;15.50;42.70
70986;DHT22;58645;43.068;25.610;2023-02-15T12:43:47;14.10;46.00
70986;DHT22;58645;43.068;25.610;2023-02-15T12:46:19;13.70;46.80
70986;DHT22;58645;43.068;25.610;2023-02-15T12:48:45;13.50;48.00
70986;DHT22;58645;43.068;25.610;2023-02-15T12:51:14;13.40;48.10
70986;DHT22;58645;43.068;25.610;2023-02-15T12:53:40;13.40;49.10
70986;DHT22;58645;43.068;25.610;2023-02-15T12:56:09;13.20;48.80
70986;DHT22;58645;43.068;25.610;2023-02-15T12:58:36;13.20;48.60
70986;DHT22;58645;43.068;25.610;2023-02-15T13:01:11;13.30;48.60
70986;DHT22;58645;43.068;25.610;2023-02-15T13:06:24;12.90;49.20
70986;DHT22;58645;43.068;25.610;2023-02-15T13:09:18;12.70;49.70
70986;DHT22;58645;43.068;25.610;2023-02-15T13:11:46;12.60;49.70
70986;DHT22;58645;43.068;25.610;2023-02-15T13:14:28;12.40;50.00
70986;DHT22;58645;43.068;25.610;2023-02-15T13:16:58;12.20;50.50
70986;DHT22;58645;43.068;25.610;2023-02-15T13:19:35;11.90;51.50
70986;DHT22;58645;43.068;25.610;2023-02-15T13:22:06;11.90;52.10
70986;DHT22;58645;43.068;25.610;2023-02-15T13:24:37;11.90;52.00
70986;DHT22;58645;43.068;25.610;2023-02-15T13:27:04;12.00;52.10
70986;DHT22;58645;43.068;25.610;2023-02-15T13:29:36;12.00;52.10
70986;DHT22;58645;43.068;25.610;2023-02-15T13:32:15;12.10;52.60
70986;DHT22;58645;43.068;25.610;2023-02-15T13:34:47;12.00;52.00
70986;DHT22;58645;43.068;25.610;2023-02-15T13:42:36;11.80;52.80
70986;DHT22;58645;43.068;25.610;2023-02-15T13:50:55;11.50;53.00
70986;DHT22;58645;43.068;25.610;2023-02-15T13:56:13;11.30;52.90
70986;DHT22;58645;43.068;25.610;2023-02-15T14:01:24;11.20;53.50
70986;DHT22;58645;43.068;25.610;2023-02-15T14:10:13;10.90;53.40
70986;DHT22;58645;43.068;25.610;2023-02-15T14:12:57;10.80;52.30
70986;DHT22;58645;43.068;25.610;2023-02-15T14:15:32;10.70;54.80
70986;DHT22;58645;43.068;25.610;2023-02-15T14:26:32;10.60;54.50
70986;DHT22;58645;43.068;25.610;2023-02-15T14:31:44;10.40;55.60
70986;DHT22;58645;43.068;25.610;2023-02-15T14:34:53;10.40;55.80
70986;DHT22;58645;43.068;25.610;2023-02-15T14:40:06;10.20;56.70
70986;DHT22;58645;43.068;25.610;2023-02-15T14:43:06;10.20;57.20
70986;DHT22;58645;43.068;25.610;2023-02-15T14:45:55;10.20;57.10
70986;DHT22;58645;43.068;25.610;2023-02-15T14:48:33;10.10;57.10
70986;DHT22;58645;43.068;25.610;2023-02-15T14:51:03;10.00;57.20
70986;DHT22;58645;43.068;25.610;2023-02-15T14:53:33;10.00;57.40
70986;DHT22;58645;43.068;25.610;2023-02-15T14:58:55;9.80;58.40
70986;DHT22;58645;43.068;25.610;2023-02-15T15:02:27;9.60;58.90
70986;DHT22;58645;43.068;25.610;2023-02-15T15:04:37;9.50;59.40
70986;DHT22;58645;43.068;25.610;2023-02-15T15:07:20;9.50;59.70
70986;DHT22;58645;43.068;25.610;2023-02-15T15:10:33;9.40;60.20
70986;DHT22;58645;43.068;25.610;2023-02-15T15:12:56;9.40;60.20
70986;DHT22;58645;43.068;25.610;2023-02-15T15:17:58;9.30;60.40
70986;DHT22;58645;43.068;25.610;2023-02-15T15:20:42;9.30;60.80
70986;DHT22;58645;43.068;25.610;2023-02-15T15:25:59;9.10;61.30
70986;DHT22;58645;43.068;25.610;2023-02-15T15:31:51;8.90;62.40
70986;DHT22;58645;43.068;25.610;2023-02-15T15:37:24;8.70;63.10
70986;DHT22;58645;43.068;25.610;2023-02-15T15:40:31;8.60;63.60
70986;DHT22;58645;43.068;25.610;2023-02-15T15:48:38;8.10;65.10
70986;DHT22;58645;43.068;25.610;2023-02-15T15:53:41;7.90;65.70
70986;DHT22;58645;43.068;25.610;2023-02-15T15:56:13;7.90;65.90
70986;DHT22;58645;43.068;25.610;2023-02-15T15:58:50;7.80;66.40
70986;DHT22;58645;43.068;25.610;2023-02-15T16:01:30;7.70;66.80
70986;DHT22;58645;43.068;25.610;2023-02-15T16:03:58;7.60;67.10
70986;DHT22;58645;43.068;25.610;2023-02-15T16:06:37;7.60;67.80
70986;DHT22;58645;43.068;25.610;2023-02-15T16:11:43;7.40;68.00
70986;DHT22;58645;43.068;25.610;2023-02-15T16:14:26;7.30;68.50
70986;DHT22;58645;43.068;25.610;2023-02-15T16:17:19;7.20;68.70
70986;DHT22;58645;43.068;25.610;2023-02-15T16:19:46;7.10;69.10
70986;DHT22;58645;43.068;25.610;2023-02-15T16:22:21;7.10;69.50
70986;DHT22;58645;43.068;25.610;2023-02-15T16:25:27;7.00;69.60
70986;DHT22;58645;43.068;25.610;2023-02-15T16:27:54;6.90;70.00
70986;DHT22;58645;43.068;25.610;2023-02-15T16:30:31;6.90;70.50
70986;DHT22;58645;43.068;25.610;2023-02-15T16:33:12;6.80;70.60
70986;DHT22;58645;43.068;25.610;2023-02-15T16:35:58;6.80;70.80
70986;DHT22;58645;43.068;25.610;2023-02-15T16:43:53;6.70;71.40
70986;DHT22;58645;43.068;25.610;2023-02-15T16:46:31;6.70;71.50
70986;DHT22;58645;43.068;25.610;2023-02-15T16:49:17;6.70;71.90
70986;DHT22;58645;43.068;25.610;2023-02-15T16:51:43;6.70;72.00
70986;DHT22;58645;43.068;25.610;2023-02-15T16:54:19;6.60;71.80
70986;DHT22;58645;43.068;25.610;2023-02-15T16:56:46;6.60;72.50
70986;DHT22;58645;43.068;25.610;2023-02-15T16:59:38;6.50;73.30
70986;DHT22;58645;43.068;25.610;2023-02-15T17:02:16;6.50;73.30
70986;DHT22;58645;43.068;25.610;2023-02-15T17:04:42;6.40;73.90
70986;DHT22;58645;43.068;25.610;2023-02-15T17:07:19;6.40;74.00
70986;DHT22;58645;43.068;25.610;2023-02-15T17:09:53;6.40;74.20
70986;DHT22;58645;43.068;25.610;2023-02-15T17:12:45;6.30;74.40
70986;DHT22;58645;43.068;25.610;2023-02-15T17:15:31;6.30;74.80
70986;DHT22;58645;43.068;25.610;2023-02-15T17:18:06;6.30;75.60
70986;DHT22;58645;43.068;25.610;2023-02-15T17:20:33;6.20;75.70
70986;DHT22;58645;43.068;25.610;2023-02-15T17:22:59;6.20;76.60
70986;DHT22;58645;43.068;25.610;2023-02-15T17:25:43;6.10;77.70
70986;DHT22;58645;43.068;25.610;2023-02-15T17:28:18;6.10;77.90
70986;DHT22;58645;43.068;25.610;2023-02-15T17:30:44;6.00;78.30
70986;DHT22;58645;43.068;25.610;2023-02-15T17:33:23;6.00;79.20
70986;DHT22;58645;43.068;25.610;2023-02-15T17:38:31;5.90;80.80
70986;DHT22;58645;43.068;25.610;2023-02-15T17:40:56;5.80;80.80
70986;DHT22;58645;43.068;25.610;2023-02-15T17:43:24;5.80;81.40
70986;DHT22;58645;43.068;25.610;2023-02-15T17:45:50;5.70;82.50
70986;DHT22;58645;43.068;25.610;2023-02-15T17:48:21;5.60;83.70
70986;DHT22;58645;43.068;25.610;2023-02-15T17:50:48;5.60;84.00
70986;DHT22;58645;43.068;25.610;2023-02-15T17:53:17;5.50;84.90
70986;DHT22;58645;43.068;25.610;2023-02-15T17:55:43;5.40;85.80
70986;DHT22;58645;43.068;25.610;2023-02-15T17:58:10;5.30;87.20
70986;DHT22;58645;43.068;25.610;2023-02-15T18:00:38;5.20;88.40
70986;DHT22;58645;43.068;25.610;2023-02-15T18:03:24;5.10;89.70
70986;DHT22;58645;43.068;25.610;2023-02-15T18:06:11;5.10;90.20
70986;DHT22;58645;43.068;25.610;2023-02-15T18:08:56;5.00;90.80
70986;DHT22;58645;43.068;25.610;2023-02-15T18:11:40;5.00;92.20
70986;DHT22;58645;43.068;25.610;2023-02-15T18:14:10;4.90;93.40
70986;DHT22;58645;43.068;25.610;2023-02-15T18:16:42;4.80;94.40
70986;DHT22;58645;43.068;25.610;2023-02-15T18:19:19;4.80;95.40
70986;DHT22;58645;43.068;25.610;2023-02-15T18:21:47;4.70;96.40
70986;DHT22;58645;43.068;25.610;2023-02-15T18:24:29;4.60;97.50
70986;DHT22;58645;43.068;25.610;2023-02-15T18:26:55;4.50;98.10
70986;DHT22;58645;43.068;25.610;2023-02-15T18:29:21;4.50;98.40
70986;DHT22;58645;43.068;25.610;2023-02-15T18:31:50;4.40;98.80
70986;DHT22;58645;43.068;25.610;2023-02-15T18:34:29;4.30;99.90
70986;DHT22;58645;43.068;25.610;2023-02-15T18:36:57;4.00;99.90
70986;DHT22;58645;43.068;25.610;2023-02-15T18:41:56;3.70;99.90
70986;DHT22;58645;43.068;25.610;2023-02-15T18:44:22;3.50;99.90
70986;DHT22;58645;43.068;25.610;2023-02-15T18:46:48;3.40;99.90
70986;DHT22;58645;43.068;25.610;2023-02-15T18:49:14;3.30;99.90
70986;DHT22;58645;43.068;25.610;2023-02-15T18:51:40;3.20;99.90
70986;DHT22;58645;43.068;25.610;2023-02-15T18:54:16;3.20;99.90
70986;DHT22;58645;43.068;25.610;2023-02-15T18:56:43;3.10;99.90
70986;DHT22;58645;43.068;25.610;2023-02-15T18:59:15;3.00;99.90
70986;DHT22;58645;43.068;25.610;2023-02-15T19:01:53;3.00;99.90